»·PEaware :: DAL185 KSLC-KJAC

DAL185 :: KSLC-KJAC

FLIGHT INFORMATION

Flight Status: Arrived
Operator:
Delta Air Lines
More flights by this operator :: More flights under this callsign
Pilot: Drew L. (13237)
Aircraft: AIRBUS A319
(A319)
More flights by this aircraft type
Origin: KSLC Salt Lake City Intl
United States
Destination: KJAC Jackson Hole
United States
More flights between these airports :: More routes between these airports
Route: +NSIGN5 HOLTR DNW
File this flight plan on PilotEdge
Remarks: PBN / A1B1C1D1O1S1 DOF / 180310 REG / N319SB OPR / DAL PER / C RMK / TCAS SIMBRIEF
Altitude:
(Current/Filed)
21,000ft
Speed:
(Current/Filed)
361kts
Departed: 10-Mar-18 12:58 PM
Arrived: 10-Mar-18 01:37 PM
Distance/Time
Traveled:
178nm/0:38
Distance/Time
To Go:
Arrived

Flight Plot

Page will automatically refresh every two minutes.

Flight plan parsing failed; only flown route is shown


Map Options




Map Legend


Flown Route
Filed Route
Departure Airport
Arrival Airport
Navaid (VOR, NDB)
Fix

Horizontal Profiles

Position Reports

Time Latitude Longitude Heading Altitude Ground
Speed
10-Mar-18 12:27 40.788125 -111.977901 268 4236ft 0kts
10-Mar-18 12:28 40.788125 -111.977901 268 4236ft 0kts
10-Mar-18 12:29 40.788125 -111.977901 268 4236ft 0kts
10-Mar-18 12:30 40.788125 -111.977901 268 4236ft 0kts
10-Mar-18 12:31 40.788125 -111.977901 268 4236ft 0kts
10-Mar-18 12:32 40.788125 -111.977901 268 4236ft 0kts
10-Mar-18 12:33 40.788125 -111.977901 268 4236ft 0kts
10-Mar-18 12:34 40.788125 -111.977901 268 4236ft 0kts
10-Mar-18 12:35 40.788125 -111.977901 268 4236ft 0kts
10-Mar-18 12:36 40.788125 -111.977901 268 4236ft 0kts
10-Mar-18 12:37 40.788125 -111.977901 268 4236ft 0kts
10-Mar-18 12:38 40.788125 -111.977901 268 4236ft 0kts
10-Mar-18 12:39 40.788125 -111.977901 268 4236ft 0kts
10-Mar-18 12:40 40.788125 -111.977901 268 4236ft 0kts
10-Mar-18 12:41 40.788125 -111.977901 268 4236ft 0kts
10-Mar-18 12:42 40.788125 -111.977901 268 4236ft 0kts
10-Mar-18 12:43 40.788125 -111.977901 268 4236ft 0kts
10-Mar-18 12:44 40.788125 -111.977901 268 4236ft 0kts
10-Mar-18 12:45 40.788125 -111.977901 268 4236ft 0kts
10-Mar-18 12:46 40.788125 -111.977901 268 4236ft 0kts
10-Mar-18 12:47 40.788125 -111.977901 268 4236ft 0kts
10-Mar-18 12:48 40.788125 -111.977901 268 4236ft 0kts
10-Mar-18 12:49 40.788138 -111.977390 268 4236ft 1kts
10-Mar-18 12:50 40.788466 -111.976901 181 4236ft 1kts
10-Mar-18 12:51 40.788557 -111.976911 174 4236ft 0kts
10-Mar-18 12:52 40.788557 -111.976911 174 4236ft 0kts
10-Mar-18 12:53 40.785763 -111.976604 172 4236ft 21kts
10-Mar-18 12:54 40.778138 -111.975217 174 4236ft 29kts
10-Mar-18 12:55 40.774708 -111.974783 152 4236ft 0kts
10-Mar-18 12:56 40.774496 -111.974157 77 4236ft 9kts
10-Mar-18 12:57 40.790029 -111.974913 354 4239ft 165kts
10-Mar-18 12:58 40.836932 -111.980558 351 6656ft 189kts
10-Mar-18 12:59 40.897401 -111.989528 352 8386ft 256kts
10-Mar-18 13:00 40.970749 -111.999968 353 10911ft 288kts
10-Mar-18 13:01 41.051230 -112.011656 349 13799ft 298kts
10-Mar-18 13:02 41.123751 -111.959062 44 15921ft 337kts
10-Mar-18 13:03 41.188567 -111.867621 42 18172ft 346kts
10-Mar-18 13:04 41.266902 -111.796291 21 20059ft 351kts
10-Mar-18 13:05 41.360261 -111.729792 20 20720ft 402kts
10-Mar-18 13:06 41.464211 -111.681007 9 21132ft 395kts
10-Mar-18 13:07 41.568974 -111.639462 9 21146ft 395kts
10-Mar-18 13:08 41.674011 -111.597429 9 21147ft 395kts
10-Mar-18 13:09 41.778749 -111.555503 8 21147ft 394kts
10-Mar-18 13:10 41.884962 -111.528500 3 21146ft 389kts
10-Mar-18 13:11 41.992112 -111.504410 4 21127ft 393kts
10-Mar-18 13:12 42.099945 -111.479873 4 21123ft 393kts
10-Mar-18 13:13 42.205335 -111.455858 4 21121ft 393kts
10-Mar-18 13:14 42.312580 -111.426878 11 21125ft 397kts
10-Mar-18 13:15 42.416043 -111.374119 15 21123ft 399kts
10-Mar-18 13:16 42.518260 -111.320291 16 21120ft 400kts
10-Mar-18 13:17 42.621755 -111.265731 16 20919ft 399kts
10-Mar-18 13:18 42.724837 -111.211421 16 20218ft 394kts
10-Mar-18 13:19 42.825209 -111.158437 17 18541ft 385kts
10-Mar-18 13:20 42.923732 -111.106127 18 16878ft 378kts
10-Mar-18 13:21 43.018882 -111.055436 18 15255ft 358kts
10-Mar-18 13:22 43.105893 -111.008899 18 14935ft 322kts
10-Mar-18 13:23 43.188945 -110.964658 18 14616ft 316kts
10-Mar-18 13:24 43.268545 -110.921942 21 13494ft 305kts
10-Mar-18 13:25 43.346376 -110.879950 21 12092ft 296kts
10-Mar-18 13:26 43.415680 -110.842489 21 11725ft 289kts
10-Mar-18 13:27 43.483299 -110.805843 22 11624ft 245kts
10-Mar-18 13:28 43.545558 -110.772056 22 11526ft 229kts
10-Mar-18 13:29 43.604604 -110.739921 22 11161ft 222kts
10-Mar-18 13:30 43.657512 -110.706188 30 10160ft 206kts
10-Mar-18 13:31 43.705609 -110.667194 30 8976ft 189kts
10-Mar-18 13:32 43.727555 -110.687892 193 9073ft 152kts
10-Mar-18 13:33 43.692019 -110.697522 195 8355ft 161kts
10-Mar-18 13:34 43.642944 -110.720606 197 7307ft 159kts
10-Mar-18 13:35 43.609550 -110.736679 199 6460ft 121kts
10-Mar-18 13:36 43.599510 -110.740262 89 6460ft 9kts
10-Mar-18 13:37 43.600764 -110.739358 20 6460ft 13kts
10-Mar-18 13:38 43.602268 -110.737738 108 6460ft 0kts
10-Mar-18 13:39 43.602268 -110.737738 108 6460ft 0kts
10-Mar-18 13:40 43.602268 -110.737738 108 6460ft 0kts

Navigation Log

Ident Type
Flight plan parsing failed, navigation log unavailable